CAL154 RCTP-RJGG
Flight info
| Callsign | CAL154 |
|---|---|
| Flight time | 2h 11m |
| Altitude | 41000 |
| Route | MOLKA M750 IMPAL Y755 CARDS |
| Aircraft | A333/H-SDE1E2E3GHIJ3J5M1P2RWYZ/LB1D1 |
Departure
| Time | 2026-05-08 12:13 |
|---|---|
| Airport | Taiwan Taoyuan International Airport (RCTP) |
Arrival
| Time | 2026-05-08 14:24 |
|---|---|
| Airport | Chubu Centrair International Airport (RJGG) |
| Time | Latitude | Longitude | Altitude | Speed | Heading |
|---|---|---|---|---|---|
| 2026-05-08 11:34 | 25.07953 | 121.23110 | 105 ft | 0 kts | 139° |
| 2026-05-08 12:02 | 25.07959 | 121.23103 | 105 ft | 4 kts | 139° |
| 2026-05-08 12:02 | 25.07980 | 121.23084 | 104 ft | 4 kts | 139° |
| 2026-05-08 12:02 | 25.07999 | 121.23066 | 104 ft | 2 kts | 139° |
| 2026-05-08 12:03 | 25.08017 | 121.23050 | 104 ft | 4 kts | 157° |
| 2026-05-08 12:03 | 25.08041 | 121.23047 | 103 ft | 4 kts | 208° |
| 2026-05-08 12:03 | 25.08058 | 121.23065 | 102 ft | 4 kts | 229° |
| 2026-05-08 12:03 | 25.08068 | 121.23077 | 103 ft | 2 kts | 229° |
| 2026-05-08 12:06 | 25.08054 | 121.23059 | 102 ft | 7 kts | 229° |
| 2026-05-08 12:06 | 25.08021 | 121.23010 | 105 ft | 9 kts | 244° |
| 2026-05-08 12:06 | 25.08026 | 121.22947 | 104 ft | 9 kts | 298° |
| 2026-05-08 12:07 | 25.08030 | 121.22876 | 106 ft | 11 kts | 252° |
| 2026-05-08 12:07 | 25.07987 | 121.22807 | 104 ft | 12 kts | 230° |
| 2026-05-08 12:07 | 25.07929 | 121.22732 | 107 ft | 14 kts | 229° |
| 2026-05-08 12:07 | 25.07860 | 121.22647 | 108 ft | 17 kts | 227° |
| 2026-05-08 12:08 | 25.07780 | 121.22541 | 105 ft | 18 kts | 230° |
| 2026-05-08 12:08 | 25.07695 | 121.22433 | 105 ft | 19 kts | 229° |
| 2026-05-08 12:08 | 25.07606 | 121.22322 | 105 ft | 20 kts | 228° |
| 2026-05-08 12:08 | 25.07517 | 121.22208 | 104 ft | 20 kts | 229° |
| 2026-05-08 12:09 | 25.07423 | 121.22088 | 107 ft | 20 kts | 229° |
| 2026-05-08 12:09 | 25.07327 | 121.21967 | 106 ft | 21 kts | 229° |
| 2026-05-08 12:09 | 25.07238 | 121.21853 | 105 ft | 18 kts | 229° |
| 2026-05-08 12:09 | 25.07184 | 121.21766 | 106 ft | 11 kts | 260° |
| 2026-05-08 12:10 | 25.07207 | 121.21707 | 105 ft | 8 kts | 316° |
| 2026-05-08 12:10 | 25.07221 | 121.21694 | 105 ft | 0 kts | 321° |
| 2026-05-08 12:10 | 25.07240 | 121.21678 | 106 ft | 7 kts | 320° |
| 2026-05-08 12:11 | 25.07284 | 121.21641 | 106 ft | 8 kts | 334° |
| 2026-05-08 12:11 | 25.07336 | 121.21653 | 105 ft | 8 kts | 41° |
| 2026-05-08 12:11 | 25.07351 | 121.21674 | 105 ft | 0 kts | 52° |
| 2026-05-08 12:12 | 25.07367 | 121.21696 | 106 ft | 12 kts | 50° |
| 2026-05-08 12:12 | 25.07512 | 121.21882 | 107 ft | 61 kts | 49° |
| 2026-05-08 12:12 | 25.07912 | 121.22393 | 107 ft | 113 kts | 49° |
| 2026-05-08 12:12 | 25.08518 | 121.23168 | 262 ft | 145 kts | 48° |
| 2026-05-08 12:13 | 25.09168 | 121.23983 | 987 ft | 135 kts | 47° |
| 2026-05-08 12:13 | 25.09783 | 121.24737 | 1654 ft | 139 kts | 48° |
| 2026-05-08 12:13 | 25.10437 | 121.25538 | 2199 ft | 139 kts | 49° |
| 2026-05-08 12:13 | 25.11097 | 121.26345 | 2744 ft | 141 kts | 52° |
| 2026-05-08 12:14 | 25.11750 | 121.27175 | 3220 ft | 152 kts | 52° |
| 2026-05-08 12:14 | 25.12483 | 121.28149 | 3434 ft | 177 kts | 52° |
| 2026-05-08 12:14 | 25.13334 | 121.29277 | 3671 ft | 203 kts | 53° |
| 2026-05-08 12:14 | 25.14295 | 121.30556 | 3930 ft | 230 kts | 52° |
| 2026-05-08 12:15 | 25.15370 | 121.31963 | 4512 ft | 245 kts | 52° |
| 2026-05-08 12:15 | 25.16490 | 121.33419 | 5240 ft | 252 kts | 51° |
| 2026-05-08 12:15 | 25.17656 | 121.34932 | 5887 ft | 266 kts | 51° |
| 2026-05-08 12:15 | 25.18878 | 121.36520 | 6434 ft | 283 kts | 53° |
| 2026-05-08 12:16 | 25.20039 | 121.38321 | 6990 ft | 293 kts | 65° |
| 2026-05-08 12:16 | 25.20819 | 121.40408 | 7838 ft | 295 kts | 72° |
| 2026-05-08 12:16 | 25.21464 | 121.42568 | 8723 ft | 298 kts | 75° |
| 2026-05-08 12:16 | 25.22080 | 121.44790 | 9467 ft | 307 kts | 74° |
| 2026-05-08 12:17 | 25.22694 | 121.47073 | 10259 ft | 313 kts | 74° |
| 2026-05-08 12:17 | 25.23324 | 121.49440 | 10705 ft | 331 kts | 74° |
| 2026-05-08 12:17 | 25.23990 | 121.51958 | 11052 ft | 350 kts | 73° |
| 2026-05-08 12:17 | 25.24684 | 121.54583 | 11636 ft | 360 kts | 74° |
| 2026-05-08 12:18 | 25.25394 | 121.57273 | 12264 ft | 368 kts | 73° |
| 2026-05-08 12:18 | 25.26116 | 121.60019 | 12892 ft | 377 kts | 73° |
| 2026-05-08 12:18 | 25.26851 | 121.62822 | 13580 ft | 382 kts | 73° |
| 2026-05-08 12:18 | 25.27588 | 121.65636 | 14435 ft | 379 kts | 72° |
| 2026-05-08 12:19 | 25.28315 | 121.68413 | 15051 ft | 385 kts | 72° |
| 2026-05-08 12:19 | 25.29069 | 121.71290 | 15577 ft | 393 kts | 72° |
| 2026-05-08 12:19 | 25.29828 | 121.74195 | 16261 ft | 394 kts | 72° |
| 2026-05-08 12:19 | 25.30595 | 121.77130 | 16799 ft | 401 kts | 72° |
| 2026-05-08 12:20 | 25.31375 | 121.80114 | 17396 ft | 406 kts | 72° |
| 2026-05-08 12:20 | 25.32155 | 121.83108 | 18161 ft | 406 kts | 72° |
| 2026-05-08 12:20 | 25.32942 | 121.86129 | 18684 ft | 411 kts | 72° |
| 2026-05-08 12:20 | 25.33738 | 121.89185 | 18993 ft | 414 kts | 72° |
| 2026-05-08 12:21 | 25.34535 | 121.92252 | 19092 ft | 415 kts | 72° |
| 2026-05-08 12:21 | 25.35337 | 121.95336 | 19374 ft | 420 kts | 72° |
| 2026-05-08 12:21 | 25.36143 | 121.98444 | 19928 ft | 421 kts | 73° |
| 2026-05-08 12:21 | 25.36954 | 122.01571 | 20412 ft | 424 kts | 73° |
| 2026-05-08 12:22 | 25.37769 | 122.04716 | 20901 ft | 427 kts | 73° |
| 2026-05-08 12:22 | 25.38579 | 122.07843 | 21393 ft | 429 kts | 73° |
| 2026-05-08 12:22 | 25.39405 | 122.11035 | 21787 ft | 434 kts | 73° |
| 2026-05-08 12:22 | 25.40238 | 122.14259 | 22279 ft | 437 kts | 73° |
| 2026-05-08 12:23 | 25.41082 | 122.17497 | 22735 ft | 440 kts | 71° |
| 2026-05-08 12:23 | 25.42203 | 122.20651 | 23166 ft | 442 kts | 61° |
| 2026-05-08 12:23 | 25.43842 | 122.23519 | 23633 ft | 442 kts | 51° |
| 2026-05-08 12:23 | 25.45714 | 122.26238 | 24007 ft | 444 kts | 50° |
| 2026-05-08 12:24 | 25.47625 | 122.28930 | 24371 ft | 447 kts | 49° |
| 2026-05-08 12:24 | 25.49551 | 122.31643 | 24736 ft | 449 kts | 49° |
| 2026-05-08 12:24 | 25.51485 | 122.34377 | 25113 ft | 452 kts | 49° |
| 2026-05-08 12:24 | 25.53433 | 122.37138 | 25477 ft | 456 kts | 49° |
| 2026-05-08 12:25 | 25.55392 | 122.39923 | 25842 ft | 459 kts | 49° |
| 2026-05-08 12:25 | 25.57357 | 122.42719 | 26221 ft | 461 kts | 49° |
| 2026-05-08 12:25 | 25.59331 | 122.45531 | 26546 ft | 464 kts | 49° |
| 2026-05-08 12:25 | 25.61295 | 122.48332 | 26900 ft | 466 kts | 49° |
| 2026-05-08 12:26 | 25.63286 | 122.51173 | 27244 ft | 469 kts | 48° |
| 2026-05-08 12:26 | 25.65296 | 122.54042 | 27591 ft | 471 kts | 48° |
| 2026-05-08 12:26 | 25.67311 | 122.56921 | 27933 ft | 474 kts | 48° |
| 2026-05-08 12:26 | 25.69336 | 122.59817 | 28252 ft | 476 kts | 48° |
| 2026-05-08 12:27 | 25.71372 | 122.62729 | 28581 ft | 479 kts | 48° |
| 2026-05-08 12:27 | 25.73421 | 122.65662 | 28908 ft | 481 kts | 48° |
| 2026-05-08 12:27 | 25.75475 | 122.68604 | 29228 ft | 484 kts | 48° |
| 2026-05-08 12:27 | 25.77539 | 122.71563 | 29548 ft | 486 kts | 48° |
| 2026-05-08 12:28 | 25.79615 | 122.74540 | 29846 ft | 489 kts | 48° |
| 2026-05-08 12:28 | 25.81673 | 122.77494 | 30145 ft | 491 kts | 47° |
| 2026-05-08 12:28 | 25.83772 | 122.80509 | 30402 ft | 494 kts | 47° |
| 2026-05-08 12:28 | 25.85880 | 122.83539 | 30651 ft | 496 kts | 47° |
| 2026-05-08 12:29 | 25.87991 | 122.86574 | 30918 ft | 497 kts | 47° |
| 2026-05-08 12:29 | 25.90108 | 122.89621 | 31177 ft | 499 kts | 47° |
| 2026-05-08 12:29 | 25.92238 | 122.92687 | 31445 ft | 501 kts | 47° |
| 2026-05-08 12:29 | 25.94379 | 122.95773 | 31686 ft | 503 kts | 47° |
| 2026-05-08 12:30 | 25.96491 | 122.98818 | 31906 ft | 506 kts | 47° |
| 2026-05-08 12:30 | 25.98648 | 123.01929 | 32148 ft | 508 kts | 47° |
| 2026-05-08 12:30 | 26.00807 | 123.05046 | 32399 ft | 510 kts | 47° |
| 2026-05-08 12:30 | 26.02974 | 123.08178 | 32716 ft | 509 kts | 47° |
| 2026-05-08 12:31 | 26.05140 | 123.11312 | 33078 ft | 508 kts | 46° |
| 2026-05-08 12:31 | 26.07293 | 123.14427 | 33443 ft | 507 kts | 46° |
| 2026-05-08 12:31 | 26.09440 | 123.17537 | 33860 ft | 506 kts | 46° |
| 2026-05-08 12:31 | 26.11587 | 123.20647 | 34236 ft | 505 kts | 46° |
| 2026-05-08 12:32 | 26.13701 | 123.23713 | 34512 ft | 505 kts | 46° |
| 2026-05-08 12:32 | 26.15845 | 123.26822 | 34734 ft | 506 kts | 46° |
| 2026-05-08 12:32 | 26.17986 | 123.29930 | 34992 ft | 506 kts | 46° |
| 2026-05-08 12:32 | 26.20134 | 123.33050 | 35285 ft | 505 kts | 46° |
| 2026-05-08 12:33 | 26.22269 | 123.36154 | 35556 ft | 504 kts | 46° |
| 2026-05-08 12:33 | 26.24401 | 123.39256 | 35818 ft | 504 kts | 45° |
| 2026-05-08 12:33 | 26.26531 | 123.42356 | 36099 ft | 504 kts | 45° |
| 2026-05-08 12:33 | 26.28659 | 123.45456 | 36364 ft | 503 kts | 45° |
| 2026-05-08 12:34 | 26.30784 | 123.48554 | 36611 ft | 503 kts | 45° |
| 2026-05-08 12:34 | 26.32908 | 123.51651 | 36871 ft | 503 kts | 45° |
| 2026-05-08 12:34 | 26.35006 | 123.54713 | 37024 ft | 504 kts | 45° |
| 2026-05-08 12:34 | 26.37141 | 123.57830 | 37270 ft | 505 kts | 45° |
| 2026-05-08 12:35 | 26.39269 | 123.60940 | 37513 ft | 504 kts | 45° |
| 2026-05-08 12:35 | 26.41393 | 123.64048 | 37767 ft | 503 kts | 45° |
| 2026-05-08 12:35 | 26.43514 | 123.67153 | 38006 ft | 503 kts | 45° |
| 2026-05-08 12:35 | 26.45633 | 123.70256 | 38235 ft | 502 kts | 45° |
| 2026-05-08 12:36 | 26.47750 | 123.73360 | 38501 ft | 501 kts | 45° |
| 2026-05-08 12:36 | 26.49864 | 123.76460 | 38731 ft | 501 kts | 45° |
| 2026-05-08 12:36 | 26.51973 | 123.79554 | 38905 ft | 501 kts | 45° |
| 2026-05-08 12:36 | 26.54091 | 123.82664 | 39006 ft | 503 kts | 45° |
| 2026-05-08 12:37 | 26.56183 | 123.85737 | 39170 ft | 502 kts | 45° |
| 2026-05-08 12:37 | 26.58298 | 123.88850 | 39377 ft | 501 kts | 45° |
| 2026-05-08 12:37 | 26.60404 | 123.91950 | 39551 ft | 500 kts | 45° |
| 2026-05-08 12:37 | 26.62505 | 123.95045 | 39734 ft | 499 kts | 45° |
| 2026-05-08 12:38 | 26.64606 | 123.98142 | 39923 ft | 498 kts | 45° |
| 2026-05-08 12:38 | 26.66725 | 124.01208 | 40109 ft | 496 kts | 44° |
| 2026-05-08 12:38 | 26.68871 | 124.04160 | 40268 ft | 494 kts | 43° |
| 2026-05-08 12:38 | 26.71074 | 124.07104 | 40431 ft | 493 kts | 42° |
| 2026-05-08 12:39 | 26.73316 | 124.10069 | 40592 ft | 492 kts | 42° |
| 2026-05-08 12:39 | 26.75504 | 124.12958 | 40738 ft | 492 kts | 42° |
| 2026-05-08 12:39 | 26.77710 | 124.15882 | 40888 ft | 492 kts | 42° |
| 2026-05-08 12:39 | 26.79909 | 124.18811 | 41037 ft | 491 kts | 43° |
| 2026-05-08 12:40 | 26.84311 | 124.24702 | 41119 ft | 496 kts | 43° |
| 2026-05-08 12:40 | 26.88743 | 124.30660 | 41137 ft | 497 kts | 43° |
| 2026-05-08 12:41 | 26.93139 | 124.36584 | 41128 ft | 497 kts | 43° |
| 2026-05-08 12:41 | 26.97565 | 124.42554 | 41131 ft | 497 kts | 43° |
| 2026-05-08 12:42 | 27.01987 | 124.48520 | 41127 ft | 497 kts | 43° |
| 2026-05-08 12:42 | 27.06418 | 124.54504 | 41132 ft | 498 kts | 43° |
| 2026-05-08 12:43 | 27.10846 | 124.60491 | 41132 ft | 499 kts | 43° |
| 2026-05-08 12:43 | 27.15261 | 124.66468 | 41127 ft | 500 kts | 43° |
| 2026-05-08 12:44 | 27.19699 | 124.72487 | 41135 ft | 500 kts | 43° |
| 2026-05-08 12:44 | 27.24133 | 124.78510 | 41162 ft | 500 kts | 43° |
| 2026-05-08 12:45 | 27.27824 | 124.83527 | 41136 ft | 501 kts | 43° |
| 2026-05-08 12:45 | 27.32984 | 124.90553 | 41137 ft | 501 kts | 43° |
| 2026-05-08 12:46 | 27.36678 | 124.95590 | 41132 ft | 501 kts | 43° |
| 2026-05-08 12:46 | 27.41121 | 125.01644 | 41138 ft | 501 kts | 43° |
| 2026-05-08 12:47 | 27.45595 | 125.07683 | 41144 ft | 501 kts | 42° |
| 2026-05-08 12:47 | 27.50046 | 125.13679 | 41133 ft | 502 kts | 42° |
| 2026-05-08 12:48 | 27.54526 | 125.19729 | 41141 ft | 502 kts | 43° |
| 2026-05-08 12:48 | 27.58999 | 125.25784 | 41129 ft | 502 kts | 43° |
| 2026-05-08 12:49 | 27.63461 | 125.31833 | 41138 ft | 503 kts | 43° |
| 2026-05-08 12:49 | 27.67936 | 125.37909 | 41134 ft | 503 kts | 43° |
| 2026-05-08 12:50 | 27.72404 | 125.43985 | 41135 ft | 503 kts | 43° |
| 2026-05-08 12:50 | 27.76840 | 125.50025 | 41165 ft | 503 kts | 42° |
| 2026-05-08 12:51 | 27.83552 | 125.59180 | 41133 ft | 504 kts | 43° |
| 2026-05-08 12:52 | 27.88023 | 125.65288 | 41141 ft | 504 kts | 43° |
| 2026-05-08 12:52 | 27.94730 | 125.74470 | 41164 ft | 505 kts | 42° |
| 2026-05-08 12:53 | 27.99207 | 125.80608 | 41140 ft | 506 kts | 43° |
| 2026-05-08 12:53 | 28.03658 | 125.86720 | 41135 ft | 506 kts | 43° |
| 2026-05-08 12:54 | 28.08136 | 125.92879 | 41138 ft | 506 kts | 43° |
| 2026-05-08 12:54 | 28.12612 | 125.99044 | 41149 ft | 506 kts | 43° |
| 2026-05-08 12:55 | 28.17067 | 126.05187 | 41141 ft | 508 kts | 43° |
| 2026-05-08 12:55 | 28.21551 | 126.11380 | 41141 ft | 508 kts | 43° |
| 2026-05-08 12:56 | 28.26033 | 126.17581 | 41140 ft | 508 kts | 43° |
| 2026-05-08 12:56 | 28.30515 | 126.23790 | 41133 ft | 509 kts | 43° |
| 2026-05-08 12:57 | 28.35002 | 126.30014 | 41140 ft | 509 kts | 43° |
| 2026-05-08 12:57 | 28.39491 | 126.36252 | 41141 ft | 509 kts | 43° |
| 2026-05-08 12:58 | 28.43972 | 126.42488 | 41143 ft | 509 kts | 43° |
| 2026-05-08 12:58 | 28.48450 | 126.48727 | 41145 ft | 509 kts | 43° |
| 2026-05-08 12:59 | 28.52911 | 126.54953 | 41146 ft | 509 kts | 43° |
| 2026-05-08 12:59 | 28.57391 | 126.61214 | 41148 ft | 509 kts | 43° |
| 2026-05-08 13:00 | 28.61858 | 126.67467 | 41180 ft | 509 kts | 43° |
| 2026-05-08 13:00 | 28.66309 | 126.73704 | 41149 ft | 511 kts | 43° |
| 2026-05-08 13:01 | 28.70797 | 126.80004 | 41152 ft | 511 kts | 43° |
| 2026-05-08 13:01 | 28.75278 | 126.86308 | 41147 ft | 511 kts | 43° |
| 2026-05-08 13:02 | 28.79753 | 126.92610 | 41157 ft | 512 kts | 43° |
| 2026-05-08 13:02 | 28.84245 | 126.98943 | 41151 ft | 513 kts | 43° |
| 2026-05-08 13:03 | 28.88700 | 127.05236 | 41146 ft | 512 kts | 44° |
| 2026-05-08 13:03 | 28.93175 | 127.11567 | 41152 ft | 512 kts | 44° |
| 2026-05-08 13:04 | 28.97663 | 127.17924 | 41145 ft | 514 kts | 43° |
| 2026-05-08 13:04 | 29.02136 | 127.24270 | 41133 ft | 515 kts | 44° |
| 2026-05-08 13:05 | 29.06626 | 127.30651 | 41143 ft | 515 kts | 44° |
| 2026-05-08 13:05 | 29.11113 | 127.37039 | 41151 ft | 515 kts | 44° |
| 2026-05-08 13:06 | 29.15612 | 127.43452 | 41142 ft | 516 kts | 44° |
| 2026-05-08 13:06 | 29.20106 | 127.49867 | 41136 ft | 516 kts | 44° |
| 2026-05-08 13:07 | 29.24582 | 127.56268 | 41140 ft | 517 kts | 44° |
| 2026-05-08 13:07 | 29.29078 | 127.62708 | 41138 ft | 518 kts | 44° |
| 2026-05-08 13:08 | 29.33576 | 127.69159 | 41137 ft | 518 kts | 44° |
| 2026-05-08 13:08 | 29.38051 | 127.75589 | 41131 ft | 518 kts | 44° |
| 2026-05-08 13:09 | 29.42541 | 127.82051 | 41142 ft | 518 kts | 44° |
| 2026-05-08 13:09 | 29.47033 | 127.88524 | 41135 ft | 519 kts | 44° |
| 2026-05-08 13:10 | 29.51537 | 127.95026 | 41135 ft | 519 kts | 44° |
| 2026-05-08 13:10 | 29.56023 | 128.01509 | 41133 ft | 519 kts | 44° |
| 2026-05-08 13:11 | 29.60500 | 128.07983 | 41131 ft | 519 kts | 44° |
| 2026-05-08 13:11 | 29.65005 | 128.14508 | 41135 ft | 520 kts | 44° |
| 2026-05-08 13:12 | 29.69474 | 128.20993 | 41132 ft | 520 kts | 44° |
| 2026-05-08 13:12 | 29.73971 | 128.27529 | 41137 ft | 520 kts | 44° |
| 2026-05-08 13:13 | 29.78494 | 128.34113 | 41132 ft | 521 kts | 44° |
| 2026-05-08 13:13 | 29.82955 | 128.40619 | 41132 ft | 521 kts | 44° |
| 2026-05-08 13:14 | 29.87453 | 128.47190 | 41172 ft | 521 kts | 44° |
| 2026-05-08 13:14 | 29.91946 | 128.53763 | 41137 ft | 522 kts | 44° |
| 2026-05-08 13:15 | 29.96433 | 128.60338 | 41137 ft | 522 kts | 45° |
| 2026-05-08 13:15 | 30.00897 | 128.66891 | 41123 ft | 522 kts | 45° |
| 2026-05-08 13:16 | 30.05385 | 128.73489 | 41135 ft | 522 kts | 45° |
| 2026-05-08 13:16 | 30.09864 | 128.80086 | 41132 ft | 522 kts | 45° |
| 2026-05-08 13:17 | 30.14341 | 128.86689 | 41133 ft | 522 kts | 45° |
| 2026-05-08 13:17 | 30.18791 | 128.93265 | 41138 ft | 522 kts | 45° |
| 2026-05-08 13:18 | 30.23277 | 128.99905 | 41132 ft | 523 kts | 45° |
| 2026-05-08 13:18 | 30.27757 | 129.06545 | 41128 ft | 523 kts | 45° |
| 2026-05-08 13:19 | 30.32233 | 129.13192 | 41122 ft | 523 kts | 45° |
| 2026-05-08 13:19 | 30.36679 | 129.19806 | 41122 ft | 524 kts | 45° |
| 2026-05-08 13:20 | 30.41150 | 129.26467 | 41121 ft | 524 kts | 45° |
| 2026-05-08 13:20 | 30.45623 | 129.33143 | 41143 ft | 524 kts | 45° |
| 2026-05-08 13:21 | 30.50095 | 129.39827 | 41118 ft | 524 kts | 45° |
| 2026-05-08 13:21 | 30.54563 | 129.46516 | 41119 ft | 525 kts | 45° |
| 2026-05-08 13:22 | 30.59008 | 129.53183 | 41116 ft | 525 kts | 45° |
| 2026-05-08 13:22 | 30.63472 | 129.59890 | 41112 ft | 525 kts | 45° |
| 2026-05-08 13:23 | 30.67942 | 129.66615 | 41116 ft | 525 kts | 45° |
| 2026-05-08 13:23 | 30.72404 | 129.73342 | 41110 ft | 525 kts | 45° |
| 2026-05-08 13:24 | 30.76845 | 129.80047 | 41109 ft | 526 kts | 46° |
| 2026-05-08 13:24 | 30.81308 | 129.86798 | 41106 ft | 526 kts | 46° |
| 2026-05-08 13:25 | 30.85565 | 129.93746 | 41116 ft | 530 kts | 51° |
| 2026-05-08 13:25 | 30.89530 | 130.01014 | 41113 ft | 531 kts | 52° |
| 2026-05-08 13:26 | 30.93417 | 130.08348 | 41099 ft | 532 kts | 53° |
| 2026-05-08 13:26 | 30.97276 | 130.15664 | 41100 ft | 532 kts | 53° |
| 2026-05-08 13:27 | 31.01161 | 130.23019 | 41091 ft | 533 kts | 53° |
| 2026-05-08 13:27 | 31.05054 | 130.30387 | 41101 ft | 533 kts | 53° |
| 2026-05-08 13:28 | 31.08946 | 130.37764 | 41081 ft | 533 kts | 53° |
| 2026-05-08 13:28 | 31.12832 | 130.45144 | 41120 ft | 533 kts | 53° |
| 2026-05-08 13:29 | 31.16716 | 130.52534 | 41087 ft | 534 kts | 53° |
| 2026-05-08 13:29 | 31.20602 | 130.59944 | 41085 ft | 535 kts | 53° |
| 2026-05-08 13:30 | 31.24471 | 130.67328 | 41083 ft | 537 kts | 53° |
| 2026-05-08 13:30 | 31.28358 | 130.74771 | 41077 ft | 536 kts | 53° |
| 2026-05-08 13:31 | 31.32243 | 130.82225 | 41079 ft | 536 kts | 53° |
| 2026-05-08 13:31 | 31.36118 | 130.89673 | 41078 ft | 536 kts | 53° |
| 2026-05-08 13:32 | 31.39993 | 130.97132 | 41071 ft | 535 kts | 53° |
| 2026-05-08 13:32 | 31.43206 | 131.03330 | 41067 ft | 535 kts | 53° |
| 2026-05-08 13:33 | 31.47694 | 131.12004 | 41065 ft | 535 kts | 53° |
| 2026-05-08 13:33 | 31.51546 | 131.19467 | 41060 ft | 535 kts | 54° |
| 2026-05-08 13:34 | 31.54748 | 131.25680 | 41063 ft | 535 kts | 54° |
| 2026-05-08 13:34 | 31.58595 | 131.33160 | 41067 ft | 535 kts | 54° |
| 2026-05-08 13:35 | 31.62438 | 131.40647 | 41063 ft | 535 kts | 54° |
| 2026-05-08 13:35 | 31.66272 | 131.48141 | 41037 ft | 536 kts | 54° |
| 2026-05-08 13:36 | 31.70107 | 131.55642 | 41030 ft | 536 kts | 54° |
| 2026-05-08 13:36 | 31.73911 | 131.63100 | 41038 ft | 536 kts | 54° |
| 2026-05-08 13:37 | 31.77743 | 131.70626 | 41031 ft | 536 kts | 54° |
| 2026-05-08 13:37 | 31.81569 | 131.78157 | 41014 ft | 536 kts | 55° |
| 2026-05-08 13:38 | 31.85390 | 131.85694 | 41051 ft | 536 kts | 54° |
| 2026-05-08 13:38 | 31.89218 | 131.93260 | 41038 ft | 537 kts | 54° |
| 2026-05-08 13:39 | 31.93041 | 132.00832 | 41038 ft | 537 kts | 55° |
| 2026-05-08 13:39 | 31.96857 | 132.08404 | 41050 ft | 538 kts | 55° |
| 2026-05-08 13:40 | 32.00651 | 132.15948 | 41045 ft | 538 kts | 55° |
| 2026-05-08 13:40 | 32.04473 | 132.23562 | 41042 ft | 538 kts | 55° |
| 2026-05-08 13:41 | 32.08281 | 132.31165 | 41055 ft | 539 kts | 55° |
| 2026-05-08 13:41 | 32.12094 | 132.38792 | 41044 ft | 540 kts | 56° |
| 2026-05-08 13:42 | 32.15613 | 132.46573 | 41038 ft | 542 kts | 60° |
| 2026-05-08 13:42 | 32.18942 | 132.54571 | 41053 ft | 543 kts | 60° |
| 2026-05-08 13:43 | 32.22270 | 132.62590 | 41042 ft | 543 kts | 60° |
| 2026-05-08 13:43 | 32.25627 | 132.70593 | 41041 ft | 544 kts | 60° |
| 2026-05-08 13:44 | 32.28997 | 132.78594 | 41040 ft | 544 kts | 60° |
| 2026-05-08 13:44 | 32.32373 | 132.86616 | 41037 ft | 545 kts | 60° |
| 2026-05-08 13:45 | 32.35750 | 132.94663 | 41037 ft | 546 kts | 60° |
| 2026-05-08 13:45 | 32.39119 | 133.02710 | 41017 ft | 546 kts | 60° |
| 2026-05-08 13:46 | 32.42466 | 133.10725 | 41037 ft | 547 kts | 60° |
| 2026-05-08 13:46 | 32.45840 | 133.18823 | 41033 ft | 547 kts | 60° |
| 2026-05-08 13:47 | 32.49205 | 133.26919 | 41024 ft | 547 kts | 61° |
| 2026-05-08 13:47 | 32.52540 | 133.34962 | 41029 ft | 547 kts | 61° |
| 2026-05-08 13:48 | 32.55892 | 133.43062 | 41012 ft | 547 kts | 61° |
| 2026-05-08 13:48 | 32.59238 | 133.51167 | 41030 ft | 547 kts | 61° |
| 2026-05-08 13:49 | 32.62584 | 133.59286 | 41024 ft | 547 kts | 61° |
| 2026-05-08 13:49 | 32.65923 | 133.67407 | 41008 ft | 547 kts | 61° |
| 2026-05-08 13:50 | 32.69237 | 133.75487 | 41018 ft | 547 kts | 61° |
| 2026-05-08 13:50 | 32.72564 | 133.83614 | 40762 ft | 546 kts | 61° |
| 2026-05-08 13:51 | 32.74224 | 133.87677 | 40494 ft | 547 kts | 61° |
| 2026-05-08 13:51 | 32.75889 | 133.91756 | 40244 ft | 548 kts | 61° |
| 2026-05-08 13:51 | 32.77551 | 133.95833 | 40027 ft | 549 kts | 62° |
| 2026-05-08 13:51 | 32.79214 | 133.99919 | 39718 ft | 550 kts | 62° |
| 2026-05-08 13:52 | 32.80883 | 134.04022 | 39411 ft | 550 kts | 62° |
| 2026-05-08 13:52 | 32.82335 | 134.08263 | 39112 ft | 553 kts | 71° |
| 2026-05-08 13:52 | 32.83538 | 134.12608 | 38818 ft | 554 kts | 72° |
| 2026-05-08 13:52 | 32.84671 | 134.16937 | 38546 ft | 555 kts | 73° |
| 2026-05-08 13:53 | 32.85778 | 134.21336 | 38190 ft | 556 kts | 73° |
| 2026-05-08 13:53 | 32.86869 | 134.25752 | 37821 ft | 557 kts | 73° |
| 2026-05-08 13:53 | 32.87960 | 134.30197 | 37472 ft | 558 kts | 74° |
| 2026-05-08 13:53 | 32.89047 | 134.34627 | 37142 ft | 558 kts | 74° |
| 2026-05-08 13:54 | 32.90138 | 134.39062 | 36806 ft | 559 kts | 74° |
| 2026-05-08 13:54 | 32.91233 | 134.43501 | 36444 ft | 559 kts | 74° |
| 2026-05-08 13:54 | 32.92319 | 134.47900 | 36161 ft | 559 kts | 74° |
| 2026-05-08 13:54 | 32.93416 | 134.52347 | 35838 ft | 559 kts | 75° |
| 2026-05-08 13:55 | 32.94513 | 134.56798 | 35520 ft | 559 kts | 75° |
| 2026-05-08 13:55 | 32.95607 | 134.61244 | 35214 ft | 560 kts | 75° |
| 2026-05-08 13:55 | 32.97792 | 134.70147 | 34993 ft | 559 kts | 75° |
| 2026-05-08 13:56 | 32.98880 | 134.74592 | 35009 ft | 559 kts | 75° |
| 2026-05-08 13:56 | 33.01054 | 134.83501 | 34991 ft | 561 kts | 75° |
| 2026-05-08 13:57 | 33.03214 | 134.92378 | 34990 ft | 554 kts | 75° |
| 2026-05-08 13:57 | 33.05340 | 135.01151 | 34991 ft | 554 kts | 76° |
| 2026-05-08 13:58 | 33.07469 | 135.09961 | 34990 ft | 552 kts | 76° |
| 2026-05-08 13:58 | 33.10280 | 135.18460 | 34986 ft | 552 kts | 57° |
| 2026-05-08 13:58 | 33.12577 | 135.22100 | 34872 ft | 547 kts | 43° |
| 2026-05-08 13:59 | 33.15368 | 135.25171 | 34445 ft | 544 kts | 36° |
| 2026-05-08 13:59 | 33.18312 | 135.28020 | 33980 ft | 544 kts | 33° |
| 2026-05-08 13:59 | 33.21292 | 135.30720 | 33219 ft | 546 kts | 31° |
| 2026-05-08 13:59 | 33.24394 | 135.33451 | 32479 ft | 547 kts | 31° |
| 2026-05-08 14:00 | 33.27455 | 135.36137 | 31784 ft | 547 kts | 31° |
| 2026-05-08 14:00 | 33.30481 | 135.38811 | 31117 ft | 547 kts | 31° |
| 2026-05-08 14:00 | 33.33530 | 135.41532 | 30449 ft | 547 kts | 31° |
| 2026-05-08 14:00 | 33.36573 | 135.44271 | 29751 ft | 546 kts | 31° |
| 2026-05-08 14:01 | 33.39589 | 135.47001 | 28992 ft | 544 kts | 31° |
| 2026-05-08 14:01 | 33.42606 | 135.49742 | 28254 ft | 542 kts | 31° |
| 2026-05-08 14:01 | 33.45602 | 135.52470 | 27540 ft | 540 kts | 31° |
| 2026-05-08 14:01 | 33.48589 | 135.55192 | 26841 ft | 537 kts | 31° |
| 2026-05-08 14:02 | 33.51553 | 135.57899 | 26210 ft | 534 kts | 31° |
| 2026-05-08 14:02 | 33.54501 | 135.60592 | 25542 ft | 531 kts | 31° |
| 2026-05-08 14:02 | 33.57432 | 135.63265 | 24934 ft | 527 kts | 31° |
| 2026-05-08 14:02 | 33.60328 | 135.65908 | 24330 ft | 517 kts | 31° |
| 2026-05-08 14:03 | 33.63100 | 135.68455 | 23739 ft | 501 kts | 31° |
| 2026-05-08 14:03 | 33.65845 | 135.70976 | 23046 ft | 488 kts | 30° |
| 2026-05-08 14:03 | 33.68505 | 135.73412 | 22372 ft | 476 kts | 30° |
| 2026-05-08 14:03 | 33.71124 | 135.75782 | 21683 ft | 465 kts | 30° |
| 2026-05-08 14:04 | 33.73683 | 135.78094 | 21035 ft | 456 kts | 30° |
| 2026-05-08 14:04 | 33.76217 | 135.80372 | 20434 ft | 454 kts | 30° |
| 2026-05-08 14:04 | 33.78737 | 135.82624 | 19883 ft | 449 kts | 30° |
| 2026-05-08 14:04 | 33.81228 | 135.84880 | 19373 ft | 446 kts | 30° |
| 2026-05-08 14:05 | 33.83702 | 135.87106 | 18828 ft | 443 kts | 30° |
| 2026-05-08 14:05 | 33.86139 | 135.89289 | 18271 ft | 442 kts | 31° |
| 2026-05-08 14:05 | 33.88622 | 135.91535 | 17661 ft | 440 kts | 31° |
| 2026-05-08 14:05 | 33.91028 | 135.93715 | 17065 ft | 438 kts | 31° |
| 2026-05-08 14:06 | 33.93470 | 135.95918 | 16429 ft | 436 kts | 31° |
| 2026-05-08 14:06 | 33.95886 | 135.98119 | 15830 ft | 433 kts | 32° |
| 2026-05-08 14:06 | 33.98274 | 136.00308 | 15259 ft | 430 kts | 31° |
| 2026-05-08 14:06 | 34.00651 | 136.02475 | 14685 ft | 427 kts | 32° |
| 2026-05-08 14:07 | 34.03008 | 136.04627 | 14102 ft | 422 kts | 32° |
| 2026-05-08 14:07 | 34.05300 | 136.06739 | 13542 ft | 406 kts | 32° |
| 2026-05-08 14:07 | 34.07479 | 136.08740 | 12934 ft | 391 kts | 32° |
| 2026-05-08 14:07 | 34.09624 | 136.10700 | 12303 ft | 382 kts | 31° |
| 2026-05-08 14:08 | 34.11755 | 136.12632 | 11793 ft | 382 kts | 31° |
| 2026-05-08 14:08 | 34.13887 | 136.14546 | 11300 ft | 380 kts | 32° |
| 2026-05-08 14:08 | 34.15979 | 136.16442 | 11081 ft | 371 kts | 32° |
| 2026-05-08 14:08 | 34.18030 | 136.18320 | 11014 ft | 370 kts | 33° |
| 2026-05-08 14:09 | 34.20088 | 136.20199 | 11023 ft | 371 kts | 32° |
| 2026-05-08 14:09 | 34.22124 | 136.22056 | 11021 ft | 372 kts | 32° |
| 2026-05-08 14:09 | 34.24168 | 136.23980 | 11027 ft | 374 kts | 38° |
| 2026-05-08 14:09 | 34.25812 | 136.26379 | 10861 ft | 367 kts | 56° |
| 2026-05-08 14:10 | 34.27027 | 136.29075 | 10517 ft | 363 kts | 62° |
| 2026-05-08 14:10 | 34.28153 | 136.31796 | 10067 ft | 359 kts | 62° |
| 2026-05-08 14:10 | 34.29268 | 136.34493 | 9580 ft | 357 kts | 63° |
| 2026-05-08 14:10 | 34.30371 | 136.37150 | 9054 ft | 347 kts | 62° |
| 2026-05-08 14:11 | 34.31390 | 136.39684 | 8644 ft | 333 kts | 62° |
| 2026-05-08 14:11 | 34.32382 | 136.42183 | 8295 ft | 327 kts | 62° |
| 2026-05-08 14:11 | 34.33342 | 136.44671 | 7972 ft | 324 kts | 62° |
| 2026-05-08 14:11 | 34.34284 | 136.47136 | 7647 ft | 321 kts | 62° |
| 2026-05-08 14:12 | 34.35205 | 136.49578 | 7356 ft | 319 kts | 62° |
| 2026-05-08 14:12 | 34.36119 | 136.52008 | 7097 ft | 315 kts | 62° |
| 2026-05-08 14:12 | 34.37000 | 136.54405 | 6795 ft | 307 kts | 62° |
| 2026-05-08 14:12 | 34.37852 | 136.56772 | 6542 ft | 306 kts | 62° |
| 2026-05-08 14:13 | 34.38697 | 136.59147 | 6293 ft | 307 kts | 62° |
| 2026-05-08 14:13 | 34.39529 | 136.61522 | 6011 ft | 306 kts | 62° |
| 2026-05-08 14:13 | 34.40487 | 136.63786 | 5719 ft | 298 kts | 49° |
| 2026-05-08 14:13 | 34.41734 | 136.65717 | 5441 ft | 291 kts | 43° |
| 2026-05-08 14:14 | 34.43035 | 136.67569 | 5175 ft | 287 kts | 42° |
| 2026-05-08 14:14 | 34.44320 | 136.69395 | 4959 ft | 283 kts | 42° |
| 2026-05-08 14:14 | 34.45585 | 136.71206 | 4727 ft | 281 kts | 42° |
| 2026-05-08 14:14 | 34.46821 | 136.73029 | 4533 ft | 277 kts | 42° |
| 2026-05-08 14:15 | 34.48029 | 136.74813 | 4313 ft | 270 kts | 42° |
| 2026-05-08 14:15 | 34.49210 | 136.76565 | 4113 ft | 265 kts | 41° |
| 2026-05-08 14:15 | 34.50515 | 136.78032 | 4015 ft | 247 kts | 25° |
| 2026-05-08 14:15 | 34.51984 | 136.78975 | 3800 ft | 233 kts | 13° |
| 2026-05-08 14:16 | 34.53466 | 136.79661 | 3608 ft | 224 kts | 10° |
| 2026-05-08 14:16 | 34.54908 | 136.80261 | 3511 ft | 213 kts | 8° |
| 2026-05-08 14:16 | 34.56265 | 136.80808 | 3519 ft | 204 kts | 8° |
| 2026-05-08 14:16 | 34.57615 | 136.81337 | 3514 ft | 203 kts | 7° |
| 2026-05-08 14:17 | 34.58964 | 136.81857 | 3509 ft | 204 kts | 7° |
| 2026-05-08 14:17 | 34.60324 | 136.82382 | 3507 ft | 205 kts | 7° |
| 2026-05-08 14:17 | 34.61681 | 136.82908 | 3507 ft | 205 kts | 7° |
| 2026-05-08 14:17 | 34.63040 | 136.83434 | 3505 ft | 204 kts | 8° |
| 2026-05-08 14:18 | 34.64390 | 136.83960 | 3505 ft | 203 kts | 9° |
| 2026-05-08 14:18 | 34.65714 | 136.84478 | 3497 ft | 193 kts | 8° |
| 2026-05-08 14:18 | 34.66921 | 136.84884 | 3493 ft | 171 kts | 358° |
| 2026-05-08 14:18 | 34.68050 | 136.84796 | 3497 ft | 159 kts | 343° |
| 2026-05-08 14:19 | 34.69145 | 136.84531 | 3404 ft | 158 kts | 341° |
| 2026-05-08 14:19 | 34.70203 | 136.84277 | 3177 ft | 157 kts | 342° |
| 2026-05-08 14:19 | 34.71272 | 136.84025 | 2925 ft | 155 kts | 342° |
| 2026-05-08 14:19 | 34.72323 | 136.83775 | 2683 ft | 153 kts | 342° |
| 2026-05-08 14:20 | 34.73356 | 136.83528 | 2439 ft | 149 kts | 342° |
| 2026-05-08 14:20 | 34.74343 | 136.83293 | 2215 ft | 139 kts | 343° |
| 2026-05-08 14:20 | 34.75277 | 136.83069 | 2016 ft | 135 kts | 343° |
| 2026-05-08 14:20 | 34.75869 | 136.82928 | 1885 ft | 125 kts | 343° |
| 2026-05-08 14:21 | 34.76679 | 136.82735 | 1708 ft | 114 kts | 343° |
| 2026-05-08 14:21 | 34.77457 | 136.82547 | 1545 ft | 115 kts | 343° |
| 2026-05-08 14:21 | 34.78491 | 136.82300 | 1317 ft | 114 kts | 343° |
| 2026-05-08 14:21 | 34.79013 | 136.82175 | 1210 ft | 112 kts | 342° |
| 2026-05-08 14:22 | 34.80002 | 136.81938 | 992 ft | 108 kts | 342° |
| 2026-05-08 14:22 | 34.80738 | 136.81761 | 829 ft | 109 kts | 344° |
| 2026-05-08 14:22 | 34.81496 | 136.81579 | 677 ft | 113 kts | 345° |
| 2026-05-08 14:22 | 34.82012 | 136.81456 | 577 ft | 115 kts | 346° |
| 2026-05-08 14:23 | 34.82803 | 136.81271 | 385 ft | 115 kts | 346° |
| 2026-05-08 14:23 | 34.83817 | 136.81030 | 164 ft | 110 kts | 346° |
| 2026-05-08 14:23 | 34.84320 | 136.80907 | 57 ft | 108 kts | 346° |
| 2026-05-08 14:23 | 34.85006 | 136.80739 | 32 ft | 81 kts | 349° |
| 2026-05-08 14:24 | 34.85411 | 136.80643 | 29 ft | 47 kts | 349° |
| 2026-05-08 14:24 | 34.85669 | 136.80587 | 27 ft | 23 kts | 355° |
| 2026-05-08 14:24 | 34.85809 | 136.80590 | 29 ft | 17 kts | 6° |
| 2026-05-08 14:24 | 34.85915 | 136.80625 | 30 ft | 13 kts | 19° |
| 2026-05-08 14:25 | 34.85995 | 136.80666 | 31 ft | 12 kts | 34° |
| 2026-05-08 14:25 | 34.86032 | 136.80751 | 32 ft | 12 kts | 80° |
| 2026-05-08 14:25 | 34.86013 | 136.80845 | 32 ft | 12 kts | 145° |
| 2026-05-08 14:25 | 34.85928 | 136.80871 | 32 ft | 15 kts | 169° |
| 2026-05-08 14:26 | 34.85817 | 136.80897 | 32 ft | 17 kts | 169° |
| 2026-05-08 14:26 | 34.85700 | 136.80925 | 32 ft | 15 kts | 165° |
| 2026-05-08 14:26 | 34.85657 | 136.80989 | 32 ft | 9 kts | 91° |
| 2026-05-08 14:26 | 34.85667 | 136.81064 | 32 ft | 10 kts | 80° |
| 2026-05-08 14:27 | 34.85681 | 136.81158 | 32 ft | 12 kts | 79° |
| 2026-05-08 14:27 | 34.85698 | 136.81249 | 32 ft | 8 kts | 72° |
| 2026-05-08 14:27 | 34.85723 | 136.81298 | 32 ft | 6 kts | 50° |
| 2026-05-08 14:27 | 34.85750 | 136.81328 | 32 ft | 3 kts | 41° |
| 2026-05-08 14:28 | 34.85764 | 136.81343 | 32 ft | 3 kts | 40° |
| 2026-05-08 14:28 | 34.85774 | 136.81353 | 30 ft | 0 kts | 41° |